sensor_id;sensor_type;location;lat;lon;timestamp;P1;durP1;ratioP1;P2;durP2;ratioP2
24157;SDS011;12316;50.904;4.200;2023-07-13T00:02:21;11.77;;;2.42;;
24157;SDS011;12316;50.904;4.200;2023-07-13T00:04:47;7.40;;;2.25;;
24157;SDS011;12316;50.904;4.200;2023-07-13T00:07:12;6.85;;;1.98;;
24157;SDS011;12316;50.904;4.200;2023-07-13T00:09:39;6.72;;;2.15;;
24157;SDS011;12316;50.904;4.200;2023-07-13T00:12:05;9.05;;;2.10;;
24157;SDS011;12316;50.904;4.200;2023-07-13T00:14:58;10.52;;;2.00;;
24157;SDS011;12316;50.904;4.200;2023-07-13T00:17:25;7.18;;;2.20;;
24157;SDS011;12316;50.904;4.200;2023-07-13T00:19:52;10.93;;;2.40;;
24157;SDS011;12316;50.904;4.200;2023-07-13T00:22:18;8.63;;;2.10;;
24157;SDS011;12316;50.904;4.200;2023-07-13T00:24:44;7.18;;;2.20;;
24157;SDS011;12316;50.904;4.200;2023-07-13T00:27:11;10.38;;;2.20;;
24157;SDS011;12316;50.904;4.200;2023-07-13T00:29:37;7.80;;;2.42;;
24157;SDS011;12316;50.904;4.200;2023-07-13T00:32:03;10.48;;;2.55;;
24157;SDS011;12316;50.904;4.200;2023-07-13T00:34:30;8.00;;;2.33;;
24157;SDS011;12316;50.904;4.200;2023-07-13T00:36:56;9.38;;;2.63;;
24157;SDS011;12316;50.904;4.200;2023-07-13T00:39:21;7.68;;;2.13;;
24157;SDS011;12316;50.904;4.200;2023-07-13T00:41:47;11.18;;;2.30;;
24157;SDS011;12316;50.904;4.200;2023-07-13T00:44:14;7.25;;;2.25;;
24157;SDS011;12316;50.904;4.200;2023-07-13T00:46:40;8.95;;;2.45;;
24157;SDS011;12316;50.904;4.200;2023-07-13T00:49:06;7.03;;;2.25;;
24157;SDS011;12316;50.904;4.200;2023-07-13T00:51:46;10.80;;;2.50;;
24157;SDS011;12316;50.904;4.200;2023-07-13T00:54:15;10.23;;;2.40;;
24157;SDS011;12316;50.904;4.200;2023-07-13T00:56:48;8.48;;;2.30;;
24157;SDS011;12316;50.904;4.200;2023-07-13T00:59:17;9.15;;;2.58;;
24157;SDS011;12316;50.904;4.200;2023-07-13T01:01:45;8.05;;;2.35;;
24157;SDS011;12316;50.904;4.200;2023-07-13T01:04:10;8.82;;;2.17;;
24157;SDS011;12316;50.904;4.200;2023-07-13T01:06:37;10.60;;;2.38;;
24157;SDS011;12316;50.904;4.200;2023-07-13T01:09:04;9.50;;;2.42;;
24157;SDS011;12316;50.904;4.200;2023-07-13T01:11:31;9.82;;;2.17;;
24157;SDS011;12316;50.904;4.200;2023-07-13T01:13:57;8.80;;;2.20;;
24157;SDS011;12316;50.904;4.200;2023-07-13T01:16:28;10.32;;;2.45;;
24157;SDS011;12316;50.904;4.200;2023-07-13T01:18:59;8.05;;;2.45;;
24157;SDS011;12316;50.904;4.200;2023-07-13T01:21:27;9.52;;;2.42;;
24157;SDS011;12316;50.904;4.200;2023-07-13T01:23:53;11.80;;;2.83;;
24157;SDS011;12316;50.904;4.200;2023-07-13T01:26:19;9.85;;;2.20;;
24157;SDS011;12316;50.904;4.200;2023-07-13T01:28:45;12.52;;;2.90;;
24157;SDS011;12316;50.904;4.200;2023-07-13T01:31:11;9.50;;;2.70;;
24157;SDS011;12316;50.904;4.200;2023-07-13T01:33:38;10.38;;;2.40;;
24157;SDS011;12316;50.904;4.200;2023-07-13T01:36:08;10.13;;;2.65;;
24157;SDS011;12316;50.904;4.200;2023-07-13T01:38:35;7.10;;;2.28;;
24157;SDS011;12316;50.904;4.200;2023-07-13T01:41:02;9.25;;;2.50;;
24157;SDS011;12316;50.904;4.200;2023-07-13T01:43:28;9.93;;;2.53;;
24157;SDS011;12316;50.904;4.200;2023-07-13T01:45:54;9.75;;;2.78;;
24157;SDS011;12316;50.904;4.200;2023-07-13T01:48:19;11.43;;;2.60;;
24157;SDS011;12316;50.904;4.200;2023-07-13T01:50:45;10.90;;;2.63;;
24157;SDS011;12316;50.904;4.200;2023-07-13T01:53:12;10.85;;;2.63;;
24157;SDS011;12316;50.904;4.200;2023-07-13T01:55:37;10.13;;;2.53;;
24157;SDS011;12316;50.904;4.200;2023-07-13T01:58:03;8.65;;;2.55;;
24157;SDS011;12316;50.904;4.200;2023-07-13T02:00:30;8.70;;;2.70;;
24157;SDS011;12316;50.904;4.200;2023-07-13T02:02:56;12.40;;;2.88;;
24157;SDS011;12316;50.904;4.200;2023-07-13T02:05:22;8.70;;;2.50;;
24157;SDS011;12316;50.904;4.200;2023-07-13T02:07:48;8.25;;;2.67;;
24157;SDS011;12316;50.904;4.200;2023-07-13T02:10:14;7.28;;;2.38;;
24157;SDS011;12316;50.904;4.200;2023-07-13T02:12:40;10.93;;;2.80;;
24157;SDS011;12316;50.904;4.200;2023-07-13T02:15:06;10.75;;;2.78;;
24157;SDS011;12316;50.904;4.200;2023-07-13T02:17:33;13.18;;;2.97;;
24157;SDS011;12316;50.904;4.200;2023-07-13T02:19:59;10.70;;;2.75;;
24157;SDS011;12316;50.904;4.200;2023-07-13T02:22:25;9.88;;;2.90;;
24157;SDS011;12316;50.904;4.200;2023-07-13T02:24:50;8.82;;;2.83;;
24157;SDS011;12316;50.904;4.200;2023-07-13T02:27:16;12.35;;;3.45;;
24157;SDS011;12316;50.904;4.200;2023-07-13T02:29:42;12.57;;;3.25;;
24157;SDS011;12316;50.904;4.200;2023-07-13T02:32:07;13.50;;;3.10;;
24157;SDS011;12316;50.904;4.200;2023-07-13T02:34:33;10.68;;;3.28;;
24157;SDS011;12316;50.904;4.200;2023-07-13T02:36:59;10.20;;;2.85;;
24157;SDS011;12316;50.904;4.200;2023-07-13T02:39:25;10.15;;;2.97;;
24157;SDS011;12316;50.904;4.200;2023-07-13T02:41:50;11.80;;;3.33;;
24157;SDS011;12316;50.904;4.200;2023-07-13T02:44:16;9.57;;;2.67;;
24157;SDS011;12316;50.904;4.200;2023-07-13T02:46:41;9.32;;;3.00;;
24157;SDS011;12316;50.904;4.200;2023-07-13T02:49:07;9.55;;;2.92;;
24157;SDS011;12316;50.904;4.200;2023-07-13T02:51:33;10.00;;;2.88;;
24157;SDS011;12316;50.904;4.200;2023-07-13T02:53:59;14.13;;;3.25;;
24157;SDS011;12316;50.904;4.200;2023-07-13T02:56:27;10.40;;;3.20;;
24157;SDS011;12316;50.904;4.200;2023-07-13T02:58:53;10.60;;;2.88;;
24157;SDS011;12316;50.904;4.200;2023-07-13T03:01:20;12.73;;;3.47;;
24157;SDS011;12316;50.904;4.200;2023-07-13T03:03:47;8.32;;;3.15;;
24157;SDS011;12316;50.904;4.200;2023-07-13T03:06:16;11.65;;;3.15;;
24157;SDS011;12316;50.904;4.200;2023-07-13T03:08:42;11.75;;;3.20;;
24157;SDS011;12316;50.904;4.200;2023-07-13T03:11:10;8.57;;;2.95;;
24157;SDS011;12316;50.904;4.200;2023-07-13T03:13:38;12.05;;;3.20;;
24157;SDS011;12316;50.904;4.200;2023-07-13T03:16:05;8.55;;;3.15;;
24157;SDS011;12316;50.904;4.200;2023-07-13T03:18:31;12.02;;;3.30;;
24157;SDS011;12316;50.904;4.200;2023-07-13T03:20:57;10.82;;;3.15;;
24157;SDS011;12316;50.904;4.200;2023-07-13T03:23:23;12.45;;;3.40;;
24157;SDS011;12316;50.904;4.200;2023-07-13T03:25:50;10.43;;;3.30;;
24157;SDS011;12316;50.904;4.200;2023-07-13T03:28:15;9.60;;;3.67;;
24157;SDS011;12316;50.904;4.200;2023-07-13T03:30:41;14.07;;;3.58;;
24157;SDS011;12316;50.904;4.200;2023-07-13T03:33:07;13.20;;;3.92;;
24157;SDS011;12316;50.904;4.200;2023-07-13T03:35:34;11.50;;;3.50;;
24157;SDS011;12316;50.904;4.200;2023-07-13T03:37:59;13.50;;;3.45;;
24157;SDS011;12316;50.904;4.200;2023-07-13T03:40:26;14.68;;;4.07;;
24157;SDS011;12316;50.904;4.200;2023-07-13T03:42:52;15.70;;;4.03;;
24157;SDS011;12316;50.904;4.200;2023-07-13T03:45:18;11.82;;;3.75;;
24157;SDS011;12316;50.904;4.200;2023-07-13T03:47:44;12.68;;;3.50;;
24157;SDS011;12316;50.904;4.200;2023-07-13T03:50:09;13.38;;;3.70;;
24157;SDS011;12316;50.904;4.200;2023-07-13T03:52:35;12.15;;;3.90;;
24157;SDS011;12316;50.904;4.200;2023-07-13T03:55:01;10.77;;;3.67;;
24157;SDS011;12316;50.904;4.200;2023-07-13T03:57:26;16.27;;;4.30;;
24157;SDS011;12316;50.904;4.200;2023-07-13T03:59:52;19.00;;;3.42;;
24157;SDS011;12316;50.904;4.200;2023-07-13T04:02:18;12.60;;;3.60;;
24157;SDS011;12316;50.904;4.200;2023-07-13T04:04:44;15.88;;;3.70;;
24157;SDS011;12316;50.904;4.200;2023-07-13T04:07:09;16.02;;;3.90;;
24157;SDS011;12316;50.904;4.200;2023-07-13T04:09:35;15.32;;;4.05;;
24157;SDS011;12316;50.904;4.200;2023-07-13T04:12:01;13.65;;;3.72;;
24157;SDS011;12316;50.904;4.200;2023-07-13T04:14:27;11.18;;;3.53;;
24157;SDS011;12316;50.904;4.200;2023-07-13T04:16:52;14.38;;;3.53;;
24157;SDS011;12316;50.904;4.200;2023-07-13T04:19:19;12.93;;;3.47;;
24157;SDS011;12316;50.904;4.200;2023-07-13T04:21:45;12.57;;;3.50;;
24157;SDS011;12316;50.904;4.200;2023-07-13T04:24:11;14.07;;;3.45;;
24157;SDS011;12316;50.904;4.200;2023-07-13T04:26:37;13.55;;;3.90;;
24157;SDS011;12316;50.904;4.200;2023-07-13T04:29:03;10.30;;;3.38;;
24157;SDS011;12316;50.904;4.200;2023-07-13T04:31:29;14.73;;;3.50;;
24157;SDS011;12316;50.904;4.200;2023-07-13T04:33:55;13.25;;;3.40;;
24157;SDS011;12316;50.904;4.200;2023-07-13T04:36:21;13.07;;;3.58;;
24157;SDS011;12316;50.904;4.200;2023-07-13T04:38:47;16.83;;;3.58;;
24157;SDS011;12316;50.904;4.200;2023-07-13T04:41:14;11.13;;;3.85;;
24157;SDS011;12316;50.904;4.200;2023-07-13T04:43:40;10.60;;;3.28;;
24157;SDS011;12316;50.904;4.200;2023-07-13T04:46:07;11.10;;;2.90;;
24157;SDS011;12316;50.904;4.200;2023-07-13T04:48:34;15.88;;;3.78;;
24157;SDS011;12316;50.904;4.200;2023-07-13T04:51:00;14.95;;;3.88;;
24157;SDS011;12316;50.904;4.200;2023-07-13T04:53:26;11.43;;;3.20;;
24157;SDS011;12316;50.904;4.200;2023-07-13T04:55:53;12.77;;;3.47;;
24157;SDS011;12316;50.904;4.200;2023-07-13T04:58:18;13.52;;;3.42;;
24157;SDS011;12316;50.904;4.200;2023-07-13T05:00:44;13.13;;;3.35;;
24157;SDS011;12316;50.904;4.200;2023-07-13T05:03:10;11.32;;;3.47;;
24157;SDS011;12316;50.904;4.200;2023-07-13T05:05:36;9.57;;;3.20;;
24157;SDS011;12316;50.904;4.200;2023-07-13T05:08:01;15.95;;;3.33;;
24157;SDS011;12316;50.904;4.200;2023-07-13T05:10:27;15.52;;;3.40;;
24157;SDS011;12316;50.904;4.200;2023-07-13T05:12:52;10.75;;;3.45;;
24157;SDS011;12316;50.904;4.200;2023-07-13T05:15:20;15.23;;;3.72;;
24157;SDS011;12316;50.904;4.200;2023-07-13T05:17:49;18.48;;;3.40;;
24157;SDS011;12316;50.904;4.200;2023-07-13T05:20:15;11.77;;;3.42;;
24157;SDS011;12316;50.904;4.200;2023-07-13T05:22:43;13.40;;;3.45;;
24157;SDS011;12316;50.904;4.200;2023-07-13T05:25:08;15.40;;;3.92;;
24157;SDS011;12316;50.904;4.200;2023-07-13T05:27:34;14.68;;;3.70;;
24157;SDS011;12316;50.904;4.200;2023-07-13T05:30:01;16.10;;;3.53;;
24157;SDS011;12316;50.904;4.200;2023-07-13T05:32:28;14.30;;;3.38;;
24157;SDS011;12316;50.904;4.200;2023-07-13T05:34:53;14.50;;;3.22;;
24157;SDS011;12316;50.904;4.200;2023-07-13T05:37:19;11.43;;;3.13;;
24157;SDS011;12316;50.904;4.200;2023-07-13T05:39:45;14.95;;;3.60;;
24157;SDS011;12316;50.904;4.200;2023-07-13T05:42:10;16.27;;;3.72;;
24157;SDS011;12316;50.904;4.200;2023-07-13T05:44:36;14.68;;;3.33;;
24157;SDS011;12316;50.904;4.200;2023-07-13T05:47:02;16.10;;;3.97;;
24157;SDS011;12316;50.904;4.200;2023-07-13T05:49:28;12.93;;;3.42;;
24157;SDS011;12316;50.904;4.200;2023-07-13T05:51:55;9.48;;;3.25;;
24157;SDS011;12316;50.904;4.200;2023-07-13T05:54:21;16.13;;;3.70;;
24157;SDS011;12316;50.904;4.200;2023-07-13T05:56:46;13.05;;;3.50;;
24157;SDS011;12316;50.904;4.200;2023-07-13T05:59:12;10.82;;;3.25;;
24157;SDS011;12316;50.904;4.200;2023-07-13T06:01:38;12.85;;;3.45;;
24157;SDS011;12316;50.904;4.200;2023-07-13T06:04:04;14.77;;;3.88;;
24157;SDS011;12316;50.904;4.200;2023-07-13T06:06:29;10.85;;;3.42;;
24157;SDS011;12316;50.904;4.200;2023-07-13T06:08:55;12.70;;;3.83;;
24157;SDS011;12316;50.904;4.200;2023-07-13T06:11:22;15.52;;;3.58;;
24157;SDS011;12316;50.904;4.200;2023-07-13T06:13:50;16.77;;;4.22;;
24157;SDS011;12316;50.904;4.200;2023-07-13T06:16:16;13.88;;;3.20;;
24157;SDS011;12316;50.904;4.200;2023-07-13T06:18:42;16.85;;;4.00;;
24157;SDS011;12316;50.904;4.200;2023-07-13T06:21:15;14.02;;;3.53;;
24157;SDS011;12316;50.904;4.200;2023-07-13T06:23:43;8.98;;;3.15;;
24157;SDS011;12316;50.904;4.200;2023-07-13T06:26:10;20.25;;;3.47;;
24157;SDS011;12316;50.904;4.200;2023-07-13T06:28:36;13.38;;;3.50;;
24157;SDS011;12316;50.904;4.200;2023-07-13T06:31:04;15.18;;;3.63;;
24157;SDS011;12316;50.904;4.200;2023-07-13T06:33:34;16.50;;;3.33;;
24157;SDS011;12316;50.904;4.200;2023-07-13T06:36:00;11.82;;;3.63;;
24157;SDS011;12316;50.904;4.200;2023-07-13T06:38:27;16.13;;;3.67;;
24157;SDS011;12316;50.904;4.200;2023-07-13T06:40:53;17.23;;;4.05;;
24157;SDS011;12316;50.904;4.200;2023-07-13T06:43:19;19.13;;;4.20;;
24157;SDS011;12316;50.904;4.200;2023-07-13T06:45:45;13.82;;;3.70;;
24157;SDS011;12316;50.904;4.200;2023-07-13T06:48:14;12.82;;;3.42;;
24157;SDS011;12316;50.904;4.200;2023-07-13T06:50:41;12.70;;;4.35;;
24157;SDS011;12316;50.904;4.200;2023-07-13T06:53:07;13.77;;;3.40;;
24157;SDS011;12316;50.904;4.200;2023-07-13T06:55:34;21.50;;;3.65;;
24157;SDS011;12316;50.904;4.200;2023-07-13T06:57:59;15.07;;;3.72;;
24157;SDS011;12316;50.904;4.200;2023-07-13T07:00:25;13.50;;;3.85;;
24157;SDS011;12316;50.904;4.200;2023-07-13T07:02:51;13.73;;;3.50;;
24157;SDS011;12316;50.904;4.200;2023-07-13T07:05:16;13.52;;;3.20;;
24157;SDS011;12316;50.904;4.200;2023-07-13T07:07:42;19.08;;;3.50;;
24157;SDS011;12316;50.904;4.200;2023-07-13T07:10:08;14.07;;;3.70;;
24157;SDS011;12316;50.904;4.200;2023-07-13T07:12:34;14.77;;;3.65;;
24157;SDS011;12316;50.904;4.200;2023-07-13T07:14:59;11.25;;;2.75;;
24157;SDS011;12316;50.904;4.200;2023-07-13T07:17:25;10.07;;;3.10;;
24157;SDS011;12316;50.904;4.200;2023-07-13T07:19:51;14.25;;;3.47;;
24157;SDS011;12316;50.904;4.200;2023-07-13T07:22:19;11.75;;;3.47;;
24157;SDS011;12316;50.904;4.200;2023-07-13T07:24:45;15.75;;;3.70;;
24157;SDS011;12316;50.904;4.200;2023-07-13T07:27:10;13.00;;;3.67;;
24157;SDS011;12316;50.904;4.200;2023-07-13T07:29:36;12.00;;;3.65;;
24157;SDS011;12316;50.904;4.200;2023-07-13T07:32:02;11.82;;;3.30;;
24157;SDS011;12316;50.904;4.200;2023-07-13T07:34:28;15.68;;;4.15;;
24157;SDS011;12316;50.904;4.200;2023-07-13T07:36:53;14.00;;;3.40;;
24157;SDS011;12316;50.904;4.200;2023-07-13T07:39:19;9.52;;;2.92;;
24157;SDS011;12316;50.904;4.200;2023-07-13T07:41:45;14.07;;;3.78;;
24157;SDS011;12316;50.904;4.200;2023-07-13T07:44:10;16.00;;;3.53;;
24157;SDS011;12316;50.904;4.200;2023-07-13T07:46:36;12.85;;;3.40;;
24157;SDS011;12316;50.904;4.200;2023-07-13T07:49:01;12.68;;;3.13;;
24157;SDS011;12316;50.904;4.200;2023-07-13T07:51:27;12.88;;;3.55;;
24157;SDS011;12316;50.904;4.200;2023-07-13T07:53:53;11.95;;;3.33;;
24157;SDS011;12316;50.904;4.200;2023-07-13T07:56:19;14.40;;;4.00;;
24157;SDS011;12316;50.904;4.200;2023-07-13T07:58:44;14.68;;;3.22;;
24157;SDS011;12316;50.904;4.200;2023-07-13T08:01:10;14.27;;;3.17;;
24157;SDS011;12316;50.904;4.200;2023-07-13T08:03:36;10.80;;;3.47;;
24157;SDS011;12316;50.904;4.200;2023-07-13T08:06:01;12.75;;;3.17;;
24157;SDS011;12316;50.904;4.200;2023-07-13T08:08:27;11.77;;;2.97;;
24157;SDS011;12316;50.904;4.200;2023-07-13T08:10:53;14.48;;;3.20;;
24157;SDS011;12316;50.904;4.200;2023-07-13T08:13:19;11.68;;;3.00;;
24157;SDS011;12316;50.904;4.200;2023-07-13T08:15:45;10.15;;;3.05;;
24157;SDS011;12316;50.904;4.200;2023-07-13T08:18:11;13.82;;;3.40;;
24157;SDS011;12316;50.904;4.200;2023-07-13T08:20:39;10.38;;;2.95;;
24157;SDS011;12316;50.904;4.200;2023-07-13T08:23:05;9.73;;;3.20;;
24157;SDS011;12316;50.904;4.200;2023-07-13T08:25:31;10.40;;;3.00;;
24157;SDS011;12316;50.904;4.200;2023-07-13T08:27:57;10.35;;;2.92;;
24157;SDS011;12316;50.904;4.200;2023-07-13T08:30:23;11.63;;;3.22;;
24157;SDS011;12316;50.904;4.200;2023-07-13T08:32:48;10.18;;;3.05;;
24157;SDS011;12316;50.904;4.200;2023-07-13T08:35:14;12.88;;;3.53;;
24157;SDS011;12316;50.904;4.200;2023-07-13T08:37:41;12.73;;;3.20;;
24157;SDS011;12316;50.904;4.200;2023-07-13T08:40:08;12.30;;;3.33;;
24157;SDS011;12316;50.904;4.200;2023-07-13T08:42:37;14.75;;;3.63;;
24157;SDS011;12316;50.904;4.200;2023-07-13T08:47:53;9.10;;;3.00;;
24157;SDS011;12316;50.904;4.200;2023-07-13T08:50:47;13.13;;;3.13;;
24157;SDS011;12316;50.904;4.200;2023-07-13T08:53:20;12.27;;;3.33;;
24157;SDS011;12316;50.904;4.200;2023-07-13T08:55:57;13.02;;;3.05;;
24157;SDS011;12316;50.904;4.200;2023-07-13T08:58:24;12.07;;;3.17;;
24157;SDS011;12316;50.904;4.200;2023-07-13T09:03:23;11.20;;;3.15;;
24157;SDS011;12316;50.904;4.200;2023-07-13T09:05:54;10.55;;;3.28;;
24157;SDS011;12316;50.904;4.200;2023-07-13T09:08:42;7.43;;;2.38;;
24157;SDS011;12316;50.904;4.200;2023-07-13T09:14:33;9.98;;;2.97;;
24157;SDS011;12316;50.904;4.200;2023-07-13T09:17:28;9.23;;;2.42;;
24157;SDS011;12316;50.904;4.200;2023-07-13T09:25:34;11.93;;;2.67;;
24157;SDS011;12316;50.904;4.200;2023-07-13T09:28:46;8.15;;;2.75;;
24157;SDS011;12316;50.904;4.200;2023-07-13T09:33:23;9.35;;;2.20;;
24157;SDS011;12316;50.904;4.200;2023-07-13T09:35:48;8.93;;;2.72;;
24157;SDS011;12316;50.904;4.200;2023-07-13T09:38:18;8.25;;;2.60;;
24157;SDS011;12316;50.904;4.200;2023-07-13T09:40:56;7.90;;;2.55;;
24157;SDS011;12316;50.904;4.200;2023-07-13T09:43:24;11.57;;;2.88;;
24157;SDS011;12316;50.904;4.200;2023-07-13T09:45:50;8.00;;;2.70;;
24157;SDS011;12316;50.904;4.200;2023-07-13T09:48:16;9.05;;;2.83;;
24157;SDS011;12316;50.904;4.200;2023-07-13T09:50:43;8.68;;;2.47;;
24157;SDS011;12316;50.904;4.200;2023-07-13T09:53:16;6.95;;;2.35;;
24157;SDS011;12316;50.904;4.200;2023-07-13T09:55:45;9.75;;;2.38;;
24157;SDS011;12316;50.904;4.200;2023-07-13T10:00:41;8.55;;;2.50;;
24157;SDS011;12316;50.904;4.200;2023-07-13T10:03:23;8.23;;;2.40;;
24157;SDS011;12316;50.904;4.200;2023-07-13T10:05:51;5.22;;;2.42;;
24157;SDS011;12316;50.904;4.200;2023-07-13T10:08:18;9.07;;;2.50;;
24157;SDS011;12316;50.904;4.200;2023-07-13T10:13:26;7.82;;;2.60;;
24157;SDS011;12316;50.904;4.200;2023-07-13T10:16:21;9.57;;;2.20;;
24157;SDS011;12316;50.904;4.200;2023-07-13T10:18:58;10.50;;;2.13;;
24157;SDS011;12316;50.904;4.200;2023-07-13T10:21:39;5.35;;;2.25;;
24157;SDS011;12316;50.904;4.200;2023-07-13T10:24:17;7.38;;;2.20;;
24157;SDS011;12316;50.904;4.200;2023-07-13T10:26:50;9.77;;;2.38;;
24157;SDS011;12316;50.904;4.200;2023-07-13T10:29:40;8.90;;;2.50;;
24157;SDS011;12316;50.904;4.200;2023-07-13T10:32:11;11.52;;;2.55;;
24157;SDS011;12316;50.904;4.200;2023-07-13T10:34:38;10.82;;;2.80;;
24157;SDS011;12316;50.904;4.200;2023-07-13T10:37:07;9.10;;;2.90;;
24157;SDS011;12316;50.904;4.200;2023-07-13T10:39:54;8.55;;;2.85;;
24157;SDS011;12316;50.904;4.200;2023-07-13T10:42:32;11.15;;;3.30;;
24157;SDS011;12316;50.904;4.200;2023-07-13T10:45:05;7.72;;;3.00;;
24157;SDS011;12316;50.904;4.200;2023-07-13T10:47:41;10.43;;;3.20;;
24157;SDS011;12316;50.904;4.200;2023-07-13T10:50:09;8.25;;;2.83;;
24157;SDS011;12316;50.904;4.200;2023-07-13T10:52:47;10.10;;;3.28;;
24157;SDS011;12316;50.904;4.200;2023-07-13T11:03:33;10.50;;;3.22;;
24157;SDS011;12316;50.904;4.200;2023-07-13T11:06:43;8.68;;;3.00;;
24157;SDS011;12316;50.904;4.200;2023-07-13T11:08:53;7.30;;;2.72;;
24157;SDS011;12316;50.904;4.200;2023-07-13T11:18:45;10.88;;;3.28;;
24157;SDS011;12316;50.904;4.200;2023-07-13T11:21:19;7.80;;;2.40;;
24157;SDS011;12316;50.904;4.200;2023-07-13T11:23:53;6.90;;;2.75;;
24157;SDS011;12316;50.904;4.200;2023-07-13T11:31:42;6.83;;;2.33;;
24157;SDS011;12316;50.904;4.200;2023-07-13T11:34:18;8.65;;;2.40;;
24157;SDS011;12316;50.904;4.200;2023-07-13T11:36:50;12.13;;;2.83;;
24157;SDS011;12316;50.904;4.200;2023-07-13T11:39:19;7.35;;;2.58;;
24157;SDS011;12316;50.904;4.200;2023-07-13T11:41:56;7.65;;;2.55;;
24157;SDS011;12316;50.904;4.200;2023-07-13T11:44:25;5.82;;;2.53;;
24157;SDS011;12316;50.904;4.200;2023-07-13T11:46:53;8.48;;;2.42;;
24157;SDS011;12316;50.904;4.200;2023-07-13T11:49:20;7.57;;;2.35;;
24157;SDS011;12316;50.904;4.200;2023-07-13T11:51:47;5.72;;;2.25;;
24157;SDS011;12316;50.904;4.200;2023-07-13T11:54:22;8.55;;;2.25;;
24157;SDS011;12316;50.904;4.200;2023-07-13T11:57:02;7.57;;;2.30;;
24157;SDS011;12316;50.904;4.200;2023-07-13T11:59:39;9.40;;;2.45;;
24157;SDS011;12316;50.904;4.200;2023-07-13T12:02:08;6.32;;;2.03;;
24157;SDS011;12316;50.904;4.200;2023-07-13T12:04:58;3.80;;;1.90;;
24157;SDS011;12316;50.904;4.200;2023-07-13T12:07:27;4.28;;;1.80;;
24157;SDS011;12316;50.904;4.200;2023-07-13T12:10:00;4.60;;;1.75;;
24157;SDS011;12316;50.904;4.200;2023-07-13T12:12:29;3.05;;;1.70;;
24157;SDS011;12316;50.904;4.200;2023-07-13T12:14:55;4.65;;;1.75;;
24157;SDS011;12316;50.904;4.200;2023-07-13T12:17:22;3.97;;;1.60;;
24157;SDS011;12316;50.904;4.200;2023-07-13T12:19:50;3.60;;;1.48;;
24157;SDS011;12316;50.904;4.200;2023-07-13T12:22:17;3.35;;;1.40;;
24157;SDS011;12316;50.904;4.200;2023-07-13T12:24:45;3.72;;;1.40;;
24157;SDS011;12316;50.904;4.200;2023-07-13T12:27:19;3.85;;;1.70;;
24157;SDS011;12316;50.904;4.200;2023-07-13T12:30:33;5.38;;;1.70;;
24157;SDS011;12316;50.904;4.200;2023-07-13T12:32:57;2.67;;;1.77;;
24157;SDS011;12316;50.904;4.200;2023-07-13T12:35:30;5.20;;;1.65;;
24157;SDS011;12316;50.904;4.200;2023-07-13T12:38:00;4.15;;;1.55;;
24157;SDS011;12316;50.904;4.200;2023-07-13T12:40:32;6.18;;;1.85;;
24157;SDS011;12316;50.904;4.200;2023-07-13T12:42:59;4.47;;;2.00;;
24157;SDS011;12316;50.904;4.200;2023-07-13T12:45:29;4.50;;;1.80;;
24157;SDS011;12316;50.904;4.200;2023-07-13T12:47:56;5.20;;;2.08;;
24157;SDS011;12316;50.904;4.200;2023-07-13T12:50:34;4.00;;;2.08;;
24157;SDS011;12316;50.904;4.200;2023-07-13T12:53:09;3.00;;;1.52;;
24157;SDS011;12316;50.904;4.200;2023-07-13T12:55:43;5.40;;;1.75;;
24157;SDS011;12316;50.904;4.200;2023-07-13T12:58:20;4.60;;;1.80;;
24157;SDS011;12316;50.904;4.200;2023-07-13T13:00:50;4.47;;;1.80;;
24157;SDS011;12316;50.904;4.200;2023-07-13T13:06:02;4.00;;;1.60;;
24157;SDS011;12316;50.904;4.200;2023-07-13T13:08:48;5.65;;;1.90;;
24157;SDS011;12316;50.904;4.200;2023-07-13T13:11:15;4.07;;;1.75;;
24157;SDS011;12316;50.904;4.200;2023-07-13T13:13:42;2.92;;;1.40;;
24157;SDS011;12316;50.904;4.200;2023-07-13T13:16:09;4.82;;;1.90;;
24157;SDS011;12316;50.904;4.200;2023-07-13T13:18:39;5.35;;;1.60;;
24157;SDS011;12316;50.904;4.200;2023-07-13T13:21:05;4.47;;;1.75;;
24157;SDS011;12316;50.904;4.200;2023-07-13T13:23:30;4.38;;;1.73;;
24157;SDS011;12316;50.904;4.200;2023-07-13T13:25:57;4.00;;;1.70;;
24157;SDS011;12316;50.904;4.200;2023-07-13T13:28:23;4.88;;;1.52;;
24157;SDS011;12316;50.904;4.200;2023-07-13T13:30:50;4.22;;;1.50;;
24157;SDS011;12316;50.904;4.200;2023-07-13T13:33:16;4.20;;;1.88;;
24157;SDS011;12316;50.904;4.200;2023-07-13T13:35:46;4.88;;;1.90;;
24157;SDS011;12316;50.904;4.200;2023-07-13T13:38:24;6.18;;;1.98;;
24157;SDS011;12316;50.904;4.200;2023-07-13T13:40:52;5.68;;;1.80;;
24157;SDS011;12316;50.904;4.200;2023-07-13T13:43:18;3.28;;;1.48;;
24157;SDS011;12316;50.904;4.200;2023-07-13T13:45:51;3.85;;;1.60;;
24157;SDS011;12316;50.904;4.200;2023-07-13T13:48:19;4.80;;;1.65;;
24157;SDS011;12316;50.904;4.200;2023-07-13T13:50:55;5.35;;;1.70;;
24157;SDS011;12316;50.904;4.200;2023-07-13T13:53:21;2.80;;;1.58;;
24157;SDS011;12316;50.904;4.200;2023-07-13T13:55:48;4.53;;;1.85;;
24157;SDS011;12316;50.904;4.200;2023-07-13T13:58:18;4.80;;;1.88;;
24157;SDS011;12316;50.904;4.200;2023-07-13T14:00:45;4.47;;;1.90;;
24157;SDS011;12316;50.904;4.200;2023-07-13T14:03:14;5.68;;;1.63;;
24157;SDS011;12316;50.904;4.200;2023-07-13T14:05:44;5.53;;;2.05;;
24157;SDS011;12316;50.904;4.200;2023-07-13T14:08:18;5.88;;;1.65;;
24157;SDS011;12316;50.904;4.200;2023-07-13T14:10:49;4.80;;;1.80;;
24157;SDS011;12316;50.904;4.200;2023-07-13T14:13:22;6.97;;;1.67;;
24157;SDS011;12316;50.904;4.200;2023-07-13T14:15:53;5.65;;;1.65;;
24157;SDS011;12316;50.904;4.200;2023-07-13T14:18:18;4.47;;;1.60;;
24157;SDS011;12316;50.904;4.200;2023-07-13T14:20:45;4.85;;;1.55;;
24157;SDS011;12316;50.904;4.200;2023-07-13T14:23:12;3.92;;;1.75;;
24157;SDS011;12316;50.904;4.200;2023-07-13T14:25:39;4.55;;;1.52;;
24157;SDS011;12316;50.904;4.200;2023-07-13T14:28:17;4.07;;;1.60;;
24157;SDS011;12316;50.904;4.200;2023-07-13T14:30:47;3.58;;;1.50;;
24157;SDS011;12316;50.904;4.200;2023-07-13T14:33:13;5.22;;;1.85;;
24157;SDS011;12316;50.904;4.200;2023-07-13T14:35:39;4.80;;;1.60;;
24157;SDS011;12316;50.904;4.200;2023-07-13T14:38:05;5.03;;;1.75;;
24157;SDS011;12316;50.904;4.200;2023-07-13T14:40:36;5.90;;;1.90;;
24157;SDS011;12316;50.904;4.200;2023-07-13T14:43:02;7.03;;;1.85;;
24157;SDS011;12316;50.904;4.200;2023-07-13T14:45:28;3.00;;;1.55;;
24157;SDS011;12316;50.904;4.200;2023-07-13T14:47:56;4.78;;;1.80;;
24157;SDS011;12316;50.904;4.200;2023-07-13T14:50:27;4.20;;;1.70;;
24157;SDS011;12316;50.904;4.200;2023-07-13T14:52:57;3.53;;;1.60;;
24157;SDS011;12316;50.904;4.200;2023-07-13T14:55:36;3.38;;;1.50;;
24157;SDS011;12316;50.904;4.200;2023-07-13T14:58:02;5.97;;;1.90;;
24157;SDS011;12316;50.904;4.200;2023-07-13T15:00:27;4.47;;;1.50;;
24157;SDS011;12316;50.904;4.200;2023-07-13T15:02:55;3.88;;;1.60;;
24157;SDS011;12316;50.904;4.200;2023-07-13T15:05:27;4.55;;;1.73;;
24157;SDS011;12316;50.904;4.200;2023-07-13T15:10:23;6.07;;;2.35;;
24157;SDS011;12316;50.904;4.200;2023-07-13T15:12:51;2.47;;;1.63;;
24157;SDS011;12316;50.904;4.200;2023-07-13T15:15:18;2.67;;;1.65;;
24157;SDS011;12316;50.904;4.200;2023-07-13T15:17:46;3.17;;;1.50;;
24157;SDS011;12316;50.904;4.200;2023-07-13T15:22:55;6.00;;;1.98;;
24157;SDS011;12316;50.904;4.200;2023-07-13T15:25:23;3.20;;;1.60;;
24157;SDS011;12316;50.904;4.200;2023-07-13T15:27:51;3.25;;;1.60;;
24157;SDS011;12316;50.904;4.200;2023-07-13T15:30:17;3.95;;;1.92;;
24157;SDS011;12316;50.904;4.200;2023-07-13T15:32:43;2.85;;;1.67;;
24157;SDS011;12316;50.904;4.200;2023-07-13T15:35:14;5.15;;;1.90;;
24157;SDS011;12316;50.904;4.200;2023-07-13T15:37:41;3.90;;;1.92;;
24157;SDS011;12316;50.904;4.200;2023-07-13T15:40:07;3.97;;;1.85;;